Time;durP1;ratioP1;P1;durP2;ratioP2;P2;SDS_P1;SDS_P2;PMS_P1;PMS_P2;Temp;Humidity;BMP_temperature;BMP_pressure;BME280_temperature;BME280_humidity;BME280_pressure;Samples;Min_cycle;Max_cycle;Signal;HPM_P1;HPM_P2
2021/03/03 07:53:47;;;;;;;14.60;5.90;;;11.00;99.90;;;;;;3311973;26;20384;-71
2021/03/03 07:56:15;;;;;;;13.27;5.87;;;11.40;99.90;;;;;;4991929;28;20210;-71
2021/03/03 07:58:42;;;;;;;15.50;6.30;;;11.70;99.90;;;;;;4989408;28;20577;-72
2021/03/03 08:01:11;;;;;;;11.00;5.60;;;12.00;99.90;;;;;;4972784;28;20658;-71
2021/03/03 08:03:41;;;;;;;14.07;6.00;;;12.30;99.90;;;;;;4972507;28;20203;-71
2021/03/03 08:06:24;;;;;;;16.57;6.60;;;12.50;99.90;;;;;;4972719;28;20207;-71
2021/03/03 08:09:12;;;;;;;13.07;6.60;;;12.80;99.90;;;;;;4971956;28;20241;-72
2021/03/03 08:11:41;;;;;;;13.30;6.33;;;13.20;99.90;;;;;;4973123;28;20258;-72
2021/03/03 08:14:31;;;;;;;18.43;7.73;;;13.50;99.90;;;;;;4973483;28;20254;-73
2021/03/03 08:16:59;;;;;;;16.77;6.57;;;13.80;99.90;;;;;;4973942;28;20214;-73
2021/03/03 08:19:50;;;;;;;15.30;7.23;;;14.20;99.90;;;;;;4973880;28;20743;-73
2021/03/03 08:22:16;;;;;;;13.40;6.87;;;14.50;99.90;;;;;;4973998;28;20211;-73
2021/03/03 08:24:43;;;;;;;16.63;6.90;;;14.80;99.90;;;;;;4974021;28;20207;-73
2021/03/03 08:27:37;;;;;;;18.33;7.73;;;15.10;99.90;;;;;;4973977;28;20270;-73
2021/03/03 08:30:14;;;;;;;16.60;7.00;;;15.40;99.90;;;;;;4939475;28;20243;-73
2021/03/03 08:32:40;;;;;;;14.47;7.27;;;15.70;99.90;;;;;;4974279;28;20214;-73
2021/03/03 08:35:07;;;;;;;21.27;8.10;;;16.00;99.90;;;;;;4974042;28;20208;-73
2021/03/03 08:37:35;;;;;;;15.60;7.73;;;16.30;99.90;;;;;;4973797;28;20298;-73
2021/03/03 08:40:24;;;;;;;14.97;6.97;;;16.70;99.90;;;;;;4973919;28;20589;-73
2021/03/03 08:42:50;;;;;;;17.37;7.80;;;17.00;99.90;;;;;;4973697;28;20215;-73
2021/03/03 08:45:17;;;;;;;15.77;7.43;;;17.40;99.90;;;;;;4973741;28;20208;-73
2021/03/03 08:47:54;;;;;;;15.93;6.83;;;17.70;99.90;;;;;;4974024;28;20377;-73
2021/03/03 08:50:45;;;;;;;21.42;8.70;;;18.00;99.90;;;;;;4973994;28;20226;-73
2021/03/03 08:53:22;;;;;;;16.58;8.32;;;18.40;99.90;;;;;;4975465;28;20254;-73
2021/03/03 08:55:49;;;;;;;17.83;8.13;;;18.60;99.90;;;;;;4977489;28;20717;-73
2021/03/03 08:58:48;;;;;;;19.77;8.30;;;18.80;99.90;;;;;;4977263;28;20211;-73
2021/03/03 09:01:14;;;;;;;17.38;7.97;;;18.80;99.30;;;;;;4977149;28;20211;-73
2021/03/03 09:03:40;;;;;;;18.08;8.77;;;18.70;98.80;;;;;;4977497;28;20226;-73
2021/03/03 09:06:07;;;;;;;17.88;7.53;;;18.70;98.40;;;;;;4977307;28;20218;-73
2021/03/03 09:08:33;;;;;;;20.05;8.57;;;18.60;97.90;;;;;;4976734;28;20235;-73
2021/03/03 09:11:00;;;;;;;18.63;7.90;;;18.60;98.30;;;;;;4976763;28;20262;-73
2021/03/03 09:13:28;;;;;;;17.90;8.43;;;18.50;97.90;;;;;;4977190;28;20569;-73
2021/03/03 09:16:05;;;;;;;18.08;8.43;;;18.50;98.50;;;;;;4977159;28;20262;-73
2021/03/03 09:18:31;;;;;;;15.02;7.90;;;18.40;97.60;;;;;;4976677;28;20207;-73
2021/03/03 09:21:05;;;;;;;20.03;7.90;;;18.30;98.20;;;;;;4976539;28;20211;-73
2021/03/03 09:23:32;;;;;;;13.95;7.25;;;18.30;97.90;;;;;;4976371;28;20211;-73
2021/03/03 09:25:59;;;;;;;16.07;7.13;;;17.80;98.10;;;;;;4975999;28;20214;-73
2021/03/03 09:28:39;;;;;;;22.43;8.13;;;17.60;98.50;;;;;;4974061;28;20262;-73
2021/03/03 09:31:05;;;;;;;18.03;7.23;;;17.10;98.70;;;;;;4975913;28;20222;-73
2021/03/03 09:33:32;;;;;;;16.20;7.07;;;17.00;98.60;;;;;;4976572;28;20207;-73
2021/03/03 09:35:59;;;;;;;14.63;7.10;;;17.20;99.00;;;;;;4976536;28;20203;-72
2021/03/03 09:38:27;;;;;;;18.03;7.50;;;17.00;99.00;;;;;;4976340;28;20210;-72
2021/03/03 09:40:53;;;;;;;16.00;7.17;;;16.80;98.80;;;;;;4976579;28;20702;-72
2021/03/03 09:43:20;;;;;;;19.73;7.73;;;16.60;99.10;;;;;;4976527;28;20211;-72
2021/03/03 09:45:47;;;;;;;18.60;7.23;;;16.60;99.60;;;;;;4976292;28;20262;-72
2021/03/03 09:48:13;;;;;;;17.77;7.53;;;16.50;99.50;;;;;;4972847;28;20207;-77
2021/03/03 09:50:39;;;;;;;15.33;7.47;;;16.50;99.40;;;;;;4975223;28;20237;-77
2021/03/03 09:53:06;;;;;;;19.40;7.80;;;16.50;99.80;;;;;;4975683;28;20282;-78
2021/03/03 09:55:34;;;;;;;16.50;7.80;;;16.40;99.80;;;;;;4976563;28;20211;-74
2021/03/03 09:58:01;;;;;;;16.17;6.70;;;16.30;99.80;;;;;;4976420;28;20211;-75
2021/03/03 10:00:30;;;;;;;21.53;6.77;;;16.30;99.60;;;;;;4976202;28;20249;-73
2021/03/03 10:02:59;;;;;;;17.03;6.73;;;16.40;99.50;;;;;;4975976;28;20218;-73
2021/03/03 10:05:27;;;;;;;15.93;6.50;;;16.30;99.30;;;;;;4975660;28;20207;-73
2021/03/03 10:07:56;;;;;;;19.57;6.97;;;16.30;99.00;;;;;;4976373;28;20207;-73
2021/03/03 10:10:24;;;;;;;19.27;7.13;;;16.40;99.20;;;;;;4976265;28;20243;-72
2021/03/03 10:12:51;;;;;;;16.67;6.70;;;16.50;98.60;;;;;;4976056;28;20203;-73
2021/03/03 10:15:20;;;;;;;19.63;7.63;;;16.50;98.70;;;;;;4975475;28;20606;-72
2021/03/03 10:17:52;;;;;;;16.27;7.00;;;16.60;98.80;;;;;;4975983;28;20207;-72
2021/03/03 10:20:36;;;;;;;22.73;8.10;;;16.60;98.40;;;;;;4975572;28;20722;-72
2021/03/03 10:23:08;;;;;;;14.77;6.23;;;16.80;98.40;;;;;;4975650;28;20662;-73
2021/03/03 10:25:37;;;;;;;21.63;7.23;;;16.80;97.70;;;;;;4975493;28;20203;-72
2021/03/03 10:28:07;;;;;;;36.60;9.27;;;16.80;97.80;;;;;;4975450;28;20211;-72
2021/03/03 10:30:35;;;;;;;22.60;7.90;;;16.90;97.90;;;;;;4975530;28;20223;-72
2021/03/03 10:33:02;;;;;;;23.53;7.57;;;16.80;97.80;;;;;;4975537;28;20208;-72
2021/03/03 10:35:30;;;;;;;20.90;7.93;;;17.00;97.60;;;;;;4975511;28;20662;-72
2021/03/03 10:38:10;;;;;;;20.00;7.73;;;17.10;97.10;;;;;;4975165;28;20302;-73
2021/03/03 10:40:39;;;;;;;14.80;6.47;;;17.20;97.10;;;;;;4975440;28;20754;-72
2021/03/03 10:43:10;;;;;;;19.13;7.80;;;17.30;97.20;;;;;;4975160;28;20242;-72
2021/03/03 10:45:36;;;;;;;19.23;7.87;;;17.20;97.40;;;;;;4975289;28;20216;-73
2021/03/03 10:48:04;;;;;;;15.83;7.33;;;17.30;97.40;;;;;;4975181;28;20207;-72
2021/03/03 10:50:31;;;;;;;16.53;6.60;;;17.40;96.80;;;;;;4975385;28;20318;-73
2021/03/03 10:52:59;;;;;;;19.83;7.20;;;17.30;96.70;;;;;;4974995;28;20302;-72
2021/03/03 10:55:31;;;;;;;14.60;7.03;;;17.30;96.20;;;;;;4975456;28;20218;-73
2021/03/03 10:58:09;;;;;;;14.97;6.77;;;17.30;95.80;;;;;;4975326;28;20227;-72
2021/03/03 11:00:54;;;;;;;19.37;7.23;;;17.40;96.10;;;;;;4975129;28;20274;-73
2021/03/03 11:03:21;;;;;;;16.90;7.10;;;17.40;95.30;;;;;;4974892;28;20253;-73
2021/03/03 11:05:53;;;;;;;16.97;6.63;;;17.40;95.70;;;;;;4975367;28;20207;-73
2021/03/03 11:08:19;;;;;;;17.60;6.23;;;17.30;95.00;;;;;;4974958;28;20210;-73
2021/03/03 11:10:45;;;;;;;18.17;7.27;;;17.30;94.40;;;;;;4975190;28;20211;-73
2021/03/03 11:13:12;;;;;;;14.07;6.07;;;17.30;94.50;;;;;;4974827;28;20665;-72
2021/03/03 11:15:40;;;;;;;14.37;6.63;;;17.40;94.60;;;;;;4974483;28;20226;-72
2021/03/03 11:18:08;;;;;;;13.17;5.67;;;17.40;94.90;;;;;;4974367;28;20302;-73
2021/03/03 11:20:35;;;;;;;13.77;5.60;;;17.30;95.00;;;;;;4974808;28;20231;-73
2021/03/03 11:23:02;;;;;;;17.23;6.00;;;17.20;95.30;;;;;;4975024;28;20540;-73
2021/03/03 11:25:28;;;;;;;15.77;6.00;;;17.10;95.70;;;;;;4974762;28;20203;-72
2021/03/03 11:27:54;;;;;;;16.13;6.67;;;17.30;95.80;;;;;;4974654;28;20229;-73
2021/03/03 11:30:21;;;;;;;14.83;6.73;;;17.30;95.90;;;;;;4974616;28;20602;-73
2021/03/03 11:32:47;;;;;;;21.23;7.23;;;17.40;95.90;;;;;;4974832;28;20211;-72
2021/03/03 11:35:14;;;;;;;16.27;6.37;;;17.50;96.10;;;;;;4974924;28;20207;-72
2021/03/03 11:37:41;;;;;;;17.33;7.00;;;17.50;96.30;;;;;;4974893;28;20224;-72
2021/03/03 11:40:08;;;;;;;15.53;5.63;;;17.50;96.80;;;;;;4974393;28;20598;-72
2021/03/03 11:42:34;;;;;;;18.10;6.20;;;17.30;96.50;;;;;;4974384;28;20211;-73
2021/03/03 11:45:01;;;;;;;15.77;5.20;;;17.30;97.00;;;;;;4974229;28;20257;-73
2021/03/03 11:47:27;;;;;;;13.23;5.57;;;17.30;97.40;;;;;;4974453;28;20207;-73
2021/03/03 11:49:53;;;;;;;11.53;5.17;;;17.30;97.50;;;;;;4974065;28;20260;-73
2021/03/03 11:52:19;;;;;;;13.57;5.60;;;17.20;97.80;;;;;;4974111;28;20210;-73
2021/03/03 11:54:46;;;;;;;17.20;6.00;;;17.20;97.90;;;;;;4974216;28;20207;-73
2021/03/03 11:57:13;;;;;;;14.70;5.57;;;17.30;97.60;;;;;;4973851;28;20571;-73
2021/03/03 11:59:39;;;;;;;17.77;6.47;;;17.40;97.70;;;;;;4973814;28;20234;-73
2021/03/03 12:02:05;;;;;;;19.27;6.20;;;17.40;97.60;;;;;;4973995;28;20254;-73
2021/03/03 12:04:31;;;;;;;18.20;6.37;;;17.40;97.90;;;;;;4974146;28;20211;-73
2021/03/03 12:06:58;;;;;;;13.20;5.27;;;17.60;97.40;;;;;;4974207;28;20729;-73
2021/03/03 12:09:24;;;;;;;11.30;6.00;;;17.60;97.20;;;;;;4974138;28;20250;-73
2021/03/03 12:11:51;;;;;;;14.47;6.17;;;17.60;97.10;;;;;;4974238;28;20207;-73
2021/03/03 12:14:17;;;;;;;11.00;5.10;;;17.70;97.40;;;;;;4973921;28;20216;-73
2021/03/03 12:16:45;;;;;;;13.23;5.37;;;17.60;96.70;;;;;;4974496;28;20218;-73
2021/03/03 12:19:11;;;;;;;17.93;6.60;;;17.60;97.10;;;;;;4974004;28;20227;-72
2021/03/03 12:21:38;;;;;;;19.40;5.70;;;17.60;96.90;;;;;;4974125;28;20203;-73
2021/03/03 12:24:05;;;;;;;10.93;4.40;;;17.70;97.00;;;;;;4973786;28;20207;-72
2021/03/03 12:26:31;;;;;;;11.93;5.33;;;17.80;96.90;;;;;;4974117;28;20211;-73
2021/03/03 12:28:59;;;;;;;13.73;5.17;;;17.60;96.50;;;;;;4976858;28;20250;-73
2021/03/03 12:31:25;;;;;;;10.23;5.33;;;17.40;96.90;;;;;;4978104;28;20214;-73
2021/03/03 12:33:51;;;;;;;15.73;5.53;;;17.40;97.30;;;;;;4977458;28;20674;-73
2021/03/03 12:36:17;;;;;;;11.17;4.23;;;17.50;97.20;;;;;;4977369;28;20230;-73
2021/03/03 12:38:44;;;;;;;12.07;3.97;;;17.60;97.80;;;;;;4976525;28;20285;-72
2021/03/03 12:41:10;;;;;;;9.53;4.27;;;17.60;97.60;;;;;;4975280;28;20214;-73
2021/03/03 12:43:36;;;;;;;15.07;4.70;;;17.70;97.60;;;;;;4975445;28;20211;-73
2021/03/03 12:46:03;;;;;;;12.23;5.03;;;17.70;97.60;;;;;;4977298;28;20207;-72
2021/03/03 12:48:30;;;;;;;14.53;4.67;;;17.60;97.70;;;;;;4976562;28;20211;-73
2021/03/03 12:50:56;;;;;;;12.20;5.47;;;17.60;97.30;;;;;;4976697;28;20215;-72
2021/03/03 12:53:22;;;;;;;16.17;5.07;;;17.50;98.00;;;;;;4977158;28;20215;-72
2021/03/03 12:55:48;;;;;;;12.93;5.03;;;17.50;98.00;;;;;;4977031;28;20663;-73
2021/03/03 12:58:15;;;;;;;9.93;4.90;;;17.50;98.10;;;;;;4977287;28;20666;-73
2021/03/03 13:00:41;;;;;;;13.70;4.70;;;17.40;98.00;;;;;;4977017;28;20258;-73
2021/03/03 13:03:09;;;;;;;14.63;5.57;;;17.40;98.20;;;;;;4977450;28;20258;-73
2021/03/03 13:05:36;;;;;;;10.70;4.60;;;17.40;97.70;;;;;;4977298;28;20741;-73
2021/03/03 13:08:02;;;;;;;12.53;4.13;;;17.40;97.80;;;;;;4977324;28;20622;-74
2021/03/03 13:10:29;;;;;;;13.43;5.77;;;17.50;98.00;;;;;;4977395;28;20238;-73
2021/03/03 13:12:56;;;;;;;11.20;5.13;;;17.50;97.40;;;;;;4977083;28;20354;-73
2021/03/03 13:15:22;;;;;;;12.17;5.00;;;17.50;96.60;;;;;;4976929;28;20214;-73
2021/03/03 13:17:48;;;;;;;10.90;4.87;;;17.50;97.40;;;;;;4976987;28;20214;-73
2021/03/03 13:20:16;;;;;;;12.03;5.00;;;17.60;97.60;;;;;;4976696;28;20235;-73
2021/03/03 13:22:42;;;;;;;10.73;4.33;;;17.50;97.80;;;;;;4976786;28;20214;-73
2021/03/03 13:25:09;;;;;;;10.97;4.40;;;17.50;97.20;;;;;;4976867;28;20218;-73
2021/03/03 13:27:37;;;;;;;14.73;5.13;;;17.50;97.50;;;;;;4976684;28;20203;-73
2021/03/03 13:30:05;;;;;;;14.70;5.13;;;17.50;97.20;;;;;;4976687;28;20334;-72
2021/03/03 13:32:31;;;;;;;11.77;5.07;;;17.20;96.90;;;;;;4976692;28;20210;-73
2021/03/03 13:34:57;;;;;;;10.50;4.87;;;17.20;97.70;;;;;;4976661;28;20570;-72
2021/03/03 13:37:25;;;;;;;14.40;4.60;;;17.20;98.50;;;;;;4976644;28;20211;-72
2021/03/03 13:39:51;;;;;;;12.43;5.10;;;17.30;98.60;;;;;;4958453;28;20686;-72
2021/03/03 13:42:18;;;;;;;12.67;5.57;;;17.40;98.70;;;;;;4977388;28;20210;-72
2021/03/03 13:44:45;;;;;;;11.33;4.37;;;17.50;98.90;;;;;;4977008;28;20235;-73
2021/03/03 13:47:11;;;;;;;13.10;6.17;;;17.80;99.10;;;;;;4976576;28;20242;-73
2021/03/03 13:49:38;;;;;;;13.77;5.63;;;17.90;98.20;;;;;;4976429;28;20239;-73
2021/03/03 13:52:05;;;;;;;9.77;4.27;;;18.00;98.00;;;;;;4977754;28;20207;-72
2021/03/03 13:54:32;;;;;;;12.77;4.70;;;17.90;97.80;;;;;;4976260;28;20215;-72
2021/03/03 13:56:59;;;;;;;12.63;4.30;;;18.00;98.00;;;;;;4976290;28;20212;-72
2021/03/03 13:59:25;;;;;;;11.40;4.17;;;17.80;97.90;;;;;;4976201;28;20735;-72
2021/03/03 14:01:52;;;;;;;13.63;5.23;;;17.80;98.30;;;;;;4976507;28;20210;-72
2021/03/03 14:04:18;;;;;;;9.03;3.83;;;17.60;98.40;;;;;;4976437;28;20222;-73
2021/03/03 14:06:44;;;;;;;8.53;3.50;;;17.60;98.90;;;;;;4976231;28;20221;-73
2021/03/03 14:09:11;;;;;;;10.23;4.13;;;17.60;98.90;;;;;;4976374;28;20235;-74
2021/03/03 14:11:38;;;;;;;13.97;4.03;;;17.50;99.20;;;;;;4976359;28;20235;-73
2021/03/03 14:14:04;;;;;;;8.47;4.43;;;17.50;98.90;;;;;;4976006;28;20215;-73
2021/03/03 14:16:30;;;;;;;12.23;4.27;;;17.40;99.20;;;;;;4976398;28;20211;-73
2021/03/03 14:18:56;;;;;;;12.80;4.03;;;17.40;99.40;;;;;;4975957;28;20237;-74
2021/03/03 14:21:23;;;;;;;12.70;4.57;;;17.40;99.10;;;;;;4975742;28;20219;-72
2021/03/03 14:23:49;;;;;;;10.63;3.90;;;17.30;99.20;;;;;;4976124;28;20211;-73
2021/03/03 14:26:15;;;;;;;9.47;4.07;;;17.30;99.60;;;;;;4975731;28;20693;-72
2021/03/03 14:28:43;;;;;;;11.03;3.63;;;17.20;99.90;;;;;;4975504;28;20714;-72
2021/03/03 14:31:09;;;;;;;11.23;3.93;;;17.30;99.80;;;;;;4975524;28;20211;-72
2021/03/03 14:33:35;;;;;;;14.90;3.87;;;17.30;99.70;;;;;;4975594;28;20610;-73
2021/03/03 14:36:01;;;;;;;10.80;3.67;;;17.30;99.80;;;;;;4975561;28;20258;-73
2021/03/03 14:38:28;;;;;;;10.70;3.90;;;17.20;99.90;;;;;;4975334;28;20215;-72
2021/03/03 14:40:59;;;;;;;9.43;3.37;;;17.30;99.90;;;;;;4975653;28;20211;-73
2021/03/03 14:43:26;;;;;;;13.80;4.20;;;17.40;99.90;;;;;;4975772;28;20235;-73
2021/03/03 14:45:53;;;;;;;9.70;3.57;;;17.50;99.80;;;;;;4975327;28;20213;-73
2021/03/03 14:48:20;;;;;;;14.60;4.33;;;17.50;99.70;;;;;;4975074;28;20207;-73
2021/03/03 14:50:46;;;;;;;10.57;3.87;;;17.60;99.90;;;;;;4975188;28;20239;-73
2021/03/03 14:53:12;;;;;;;10.47;3.40;;;17.60;99.90;;;;;;4974992;28;20234;-72
2021/03/03 14:55:40;;;;;;;11.23;3.50;;;17.70;99.70;;;;;;4975197;28;20211;-73
2021/03/03 14:58:06;;;;;;;19.07;4.37;;;17.60;99.90;;;;;;4975056;28;20215;-73
2021/03/03 15:00:33;;;;;;;11.63;3.57;;;17.60;99.50;;;;;;4975193;28;20238;-73
2021/03/03 15:03:00;;;;;;;16.27;4.00;;;17.50;99.90;;;;;;4975139;28;20207;-73
2021/03/03 15:05:26;;;;;;;7.23;3.40;;;17.40;99.90;;;;;;4975345;28;20210;-74
2021/03/03 15:07:52;;;;;;;8.60;3.80;;;17.40;99.90;;;;;;4975198;28;20686;-73
2021/03/03 15:10:20;;;;;;;9.47;3.33;;;17.30;99.90;;;;;;4974743;28;20602;-74
2021/03/03 15:12:46;;;;;;;11.90;3.53;;;17.40;99.90;;;;;;4975118;28;20267;-73
2021/03/03 15:15:13;;;;;;;6.10;3.03;;;17.30;99.90;;;;;;4975109;28;20261;-73
2021/03/03 15:17:40;;;;;;;9.40;3.57;;;17.20;99.90;;;;;;4974947;28;20211;-74
2021/03/03 15:20:08;;;;;;;7.63;2.97;;;17.20;99.90;;;;;;4974864;28;20231;-73
2021/03/03 15:22:34;;;;;;;10.97;3.70;;;17.30;99.70;;;;;;4975147;28;20207;-73
2021/03/03 15:25:00;;;;;;;12.40;3.80;;;17.20;99.90;;;;;;4974905;28;20222;-73
2021/03/03 15:27:27;;;;;;;12.83;5.10;;;17.10;99.90;;;;;;4974826;28;20203;-74
2021/03/03 15:29:53;;;;;;;11.40;3.97;;;17.10;99.90;;;;;;4974257;28;20248;-73
2021/03/03 15:32:19;;;;;;;16.23;4.77;;;17.20;99.90;;;;;;4974916;28;20212;-74
2021/03/03 15:34:45;;;;;;;7.47;3.40;;;17.20;99.90;;;;;;4974966;28;20207;-73
2021/03/03 15:37:12;;;;;;;10.57;3.93;;;17.10;99.90;;;;;;4974841;28;20214;-73
2021/03/03 15:39:39;;;;;;;8.67;3.30;;;17.20;99.90;;;;;;4974735;28;20231;-73
2021/03/03 15:42:06;;;;;;;14.73;4.30;;;17.20;99.90;;;;;;4974784;28;20207;-73
2021/03/03 15:44:32;;;;;;;8.07;3.73;;;17.10;99.90;;;;;;4974691;28;20218;-72
2021/03/03 15:46:58;;;;;;;12.77;3.27;;;17.30;99.90;;;;;;4974230;28;20207;-72
2021/03/03 15:49:25;;;;;;;13.53;3.87;;;17.20;99.90;;;;;;4974237;28;20247;-73
2021/03/03 15:51:51;;;;;;;9.00;3.60;;;17.10;99.90;;;;;;4974554;28;20277;-73
2021/03/03 15:54:18;;;;;;;12.10;3.30;;;17.10;99.90;;;;;;4974169;28;20274;-73
2021/03/03 15:56:44;;;;;;;8.43;3.30;;;17.00;99.90;;;;;;4974765;28;20567;-73
2021/03/03 15:59:11;;;;;;;11.10;3.50;;;16.90;99.90;;;;;;4974340;28;20239;-72
2021/03/03 16:01:37;;;;;;;12.97;3.23;;;16.60;99.90;;;;;;4974335;28;20213;-73
2021/03/03 16:04:04;;;;;;;8.67;3.40;;;16.50;99.90;;;;;;4973839;28;20207;-73
2021/03/03 16:06:30;;;;;;;11.43;3.23;;;16.50;99.90;;;;;;4974292;28;20210;-72
2021/03/03 16:08:56;;;;;;;8.43;3.83;;;16.50;99.90;;;;;;4974009;28;20258;-73
2021/03/03 16:11:24;;;;;;;9.37;3.50;;;16.50;99.90;;;;;;4974031;28;20562;-74
2021/03/03 16:13:50;;;;;;;7.73;3.53;;;16.50;99.90;;;;;;4973967;28;20744;-74
2021/03/03 16:16:16;;;;;;;5.63;2.77;;;16.50;99.90;;;;;;4974395;28;20282;-73
2021/03/03 16:18:43;;;;;;;6.43;2.93;;;16.60;99.90;;;;;;4974153;28;20231;-73
2021/03/03 16:21:09;;;;;;;8.70;3.70;;;16.50;99.90;;;;;;4974537;28;20211;-73
2021/03/03 16:23:35;;;;;;;14.00;3.23;;;16.40;99.90;;;;;;4974333;28;20211;-74
2021/03/03 16:26:02;;;;;;;7.93;3.30;;;16.40;99.90;;;;;;4974128;28;20210;-74
2021/03/03 16:28:29;;;;;;;7.93;3.10;;;16.40;99.90;;;;;;4966402;28;20218;-74
2021/03/03 16:30:55;;;;;;;7.93;3.90;;;16.50;99.90;;;;;;4964310;28;20334;-73
2021/03/03 16:33:22;;;;;;;15.50;3.70;;;16.30;99.90;;;;;;4969447;28;20217;-73
2021/03/03 16:35:48;;;;;;;12.53;3.93;;;16.10;99.90;;;;;;4964363;28;20207;-74
2021/03/03 16:38:14;;;;;;;10.20;4.40;;;15.90;99.90;;;;;;4970550;28;20443;-73
2021/03/03 16:40:40;;;;;;;10.90;4.33;;;15.90;99.90;;;;;;4969135;28;20219;-72
2021/03/03 16:43:07;;;;;;;9.77;3.90;;;15.90;99.90;;;;;;4963679;28;20211;-73
2021/03/03 16:45:34;;;;;;;17.13;3.63;;;15.90;99.90;;;;;;4965992;28;20274;-73
2021/03/03 16:48:01;;;;;;;12.43;3.50;;;15.80;99.90;;;;;;4967922;28;20336;-73
2021/03/03 16:50:28;;;;;;;12.73;3.87;;;15.80;99.90;;;;;;4965493;28;20242;-73
2021/03/03 16:52:55;;;;;;;12.50;3.70;;;15.70;99.90;;;;;;4967674;28;20318;-74
2021/03/03 16:55:21;;;;;;;10.40;3.27;;;15.80;99.90;;;;;;4964981;28;20241;-73
2021/03/03 16:57:47;;;;;;;11.80;4.13;;;15.70;99.90;;;;;;4968384;28;20218;-73
2021/03/03 17:00:15;;;;;;;12.53;4.40;;;15.70;99.90;;;;;;4964503;28;20282;-72
2021/03/03 17:02:42;;;;;;;11.70;3.90;;;15.60;99.90;;;;;;4962561;28;20370;-74
2021/03/03 17:05:10;;;;;;;15.10;4.63;;;15.60;99.90;;;;;;4963581;28;20204;-72
2021/03/03 17:07:36;;;;;;;9.70;4.17;;;15.50;99.90;;;;;;4969439;28;20214;-74
2021/03/03 17:10:04;;;;;;;16.53;4.00;;;15.50;99.90;;;;;;4971191;28;20266;-73
2021/03/03 17:12:30;;;;;;;12.63;3.77;;;15.50;99.90;;;;;;4975042;28;20218;-73
2021/03/03 17:14:56;;;;;;;17.17;3.93;;;15.60;99.90;;;;;;4966716;28;20210;-74
2021/03/03 17:17:23;;;;;;;9.53;4.47;;;15.50;99.90;;;;;;4963979;28;20211;-73
2021/03/03 17:19:51;;;;;;;10.60;4.87;;;15.40;99.90;;;;;;4972668;28;20231;-74
2021/03/03 17:22:17;;;;;;;16.47;4.87;;;15.40;99.90;;;;;;4968029;28;20278;-72
2021/03/03 17:24:44;;;;;;;10.57;3.80;;;15.30;99.90;;;;;;4975339;28;20650;-73
2021/03/03 17:27:11;;;;;;;11.53;4.53;;;15.30;99.90;;;;;;4968118;28;20203;-73
2021/03/03 17:29:37;;;;;;;10.10;4.10;;;15.30;99.90;;;;;;4971879;28;20258;-73
2021/03/03 17:32:03;;;;;;;10.50;4.57;;;15.20;99.90;;;;;;4967774;28;20203;-74
2021/03/03 17:34:30;;;;;;;10.80;4.53;;;15.10;99.90;;;;;;4974685;28;20257;-72
2021/03/03 17:36:57;;;;;;;10.70;4.77;;;14.90;99.90;;;;;;4975018;28;20211;-74
2021/03/03 17:39:23;;;;;;;13.83;4.93;;;14.90;99.90;;;;;;4976624;28;20235;-73
2021/03/03 17:41:49;;;;;;;10.30;4.47;;;14.80;99.90;;;;;;4976802;28;20210;-73
2021/03/03 17:44:16;;;;;;;13.93;4.90;;;14.80;99.90;;;;;;4976780;28;20207;-72
2021/03/03 17:46:42;;;;;;;11.10;4.43;;;14.70;99.90;;;;;;4976840;28;20278;-72
2021/03/03 17:49:08;;;;;;;12.90;4.70;;;14.60;99.90;;;;;;4976603;28;20235;-73
2021/03/03 17:51:34;;;;;;;12.20;5.20;;;14.60;99.90;;;;;;4976560;28;20207;-72
2021/03/03 17:54:01;;;;;;;9.80;4.60;;;14.40;99.90;;;;;;4976414;28;20218;-72
2021/03/03 17:56:28;;;;;;;21.60;4.90;;;14.30;99.90;;;;;;4976697;28;20211;-72
2021/03/03 17:58:54;;;;;;;14.03;5.20;;;14.20;99.90;;;;;;4976482;28;20232;-73
2021/03/03 18:01:20;;;;;;;11.43;4.20;;;14.20;99.90;;;;;;4975152;28;20214;-73
2021/03/03 18:03:46;;;;;;;17.37;5.27;;;14.00;99.90;;;;;;4976500;28;20214;-72
2021/03/03 18:06:13;;;;;;;13.60;5.40;;;13.90;99.90;;;;;;4976245;28;20307;-72
2021/03/03 18:08:39;;;;;;;11.47;5.10;;;13.80;99.90;;;;;;4976310;28;20219;-72
2021/03/03 18:11:06;;;;;;;13.97;5.33;;;13.70;99.90;;;;;;4976318;28;20252;-73
2021/03/03 18:13:32;;;;;;;11.40;4.83;;;13.50;99.90;;;;;;4976395;28;20211;-72
2021/03/03 18:15:59;;;;;;;11.47;5.37;;;13.50;99.90;;;;;;4976143;28;20207;-73
2021/03/03 18:18:25;;;;;;;18.23;5.07;;;13.40;99.90;;;;;;4975968;28;20261;-72
2021/03/03 18:20:52;;;;;;;9.70;4.77;;;13.40;99.90;;;;;;4976039;28;20265;-72
2021/03/03 18:23:18;;;;;;;14.63;5.10;;;13.50;99.90;;;;;;4976087;28;20215;-73
2021/03/03 18:25:45;;;;;;;11.50;4.90;;;13.40;99.90;;;;;;4975430;28;20215;-72
2021/03/03 18:28:12;;;;;;;15.40;5.13;;;13.30;99.90;;;;;;4975962;28;20200;-72
2021/03/03 18:30:39;;;;;;;13.00;4.43;;;13.20;99.90;;;;;;4975870;28;20242;-73
2021/03/03 18:33:06;;;;;;;14.30;5.10;;;13.10;99.90;;;;;;4975815;28;20732;-72
2021/03/03 18:35:33;;;;;;;11.70;4.43;;;13.00;99.90;;;;;;4975374;28;20251;-73
2021/03/03 18:37:59;;;;;;;17.87;5.27;;;13.10;99.90;;;;;;4975832;28;20335;-72
2021/03/03 18:40:25;;;;;;;8.57;4.57;;;13.00;99.90;;;;;;4975618;28;20274;-72
2021/03/03 18:42:52;;;;;;;20.83;5.37;;;13.00;99.90;;;;;;4975648;28;20203;-72
2021/03/03 18:45:22;;;;;;;13.63;4.90;;;13.00;99.90;;;;;;4975910;28;20207;-73
2021/03/03 18:47:49;;;;;;;19.60;5.93;;;12.90;99.90;;;;;;4975448;28;20211;-72
2021/03/03 18:50:16;;;;;;;14.43;5.40;;;12.80;99.90;;;;;;4975460;28;20646;-72
2021/03/03 18:52:43;;;;;;;13.37;6.33;;;12.70;99.90;;;;;;4975924;28;20242;-73
2021/03/03 18:55:11;;;;;;;13.97;5.40;;;12.80;99.90;;;;;;4975383;28;20211;-73
2021/03/03 18:57:39;;;;;;;18.70;7.20;;;12.70;99.90;;;;;;4975435;28;20207;-73
2021/03/03 19:00:07;;;;;;;17.97;7.47;;;12.90;99.90;;;;;;4975252;28;20266;-72
2021/03/03 19:02:35;;;;;;;23.20;8.33;;;13.20;99.90;;;;;;4975263;28;20695;-73
2021/03/03 19:05:01;;;;;;;22.83;9.73;;;13.30;99.90;;;;;;4975098;28;20540;-73
2021/03/03 19:07:27;;;;;;;18.27;9.37;;;13.40;99.90;;;;;;4975027;28;20748;-73
2021/03/03 19:09:54;;;;;;;27.43;10.73;;;13.50;99.90;;;;;;4974755;28;20245;-72
2021/03/03 19:12:20;;;;;;;29.93;12.77;;;13.40;99.90;;;;;;4975045;28;20211;-73
2021/03/03 19:14:46;;;;;;;33.13;14.70;;;13.50;99.90;;;;;;4975239;28;20294;-73
2021/03/03 19:17:14;;;;;;;27.63;13.47;;;13.50;99.90;;;;;;4974570;28;20303;-72
2021/03/03 19:19:43;;;;;;;30.13;14.77;;;13.60;99.90;;;;;;4974846;28;20721;-72
2021/03/03 19:22:10;;;;;;;30.93;14.80;;;13.60;99.90;;;;;;4974916;28;20231;-72
2021/03/03 19:24:36;;;;;;;30.50;15.73;;;13.60;99.90;;;;;;4974545;28;20658;-72
2021/03/03 19:27:03;;;;;;;34.30;15.10;;;13.60;99.90;;;;;;4974565;28;20214;-72
2021/03/03 19:29:29;;;;;;;36.23;15.67;;;13.60;99.90;;;;;;4974440;28;20235;-73
2021/03/03 19:31:56;;;;;;;30.40;15.47;;;13.60;99.90;;;;;;4974927;28;20299;-72
2021/03/03 19:34:22;;;;;;;31.23;15.27;;;13.50;99.90;;;;;;4974637;28;20211;-72
2021/03/03 19:36:49;;;;;;;34.00;15.43;;;13.50;99.90;;;;;;4974256;28;20222;-73
2021/03/03 19:39:15;;;;;;;33.57;16.57;;;13.30;99.90;;;;;;4974201;28;20234;-73
2021/03/03 19:41:41;;;;;;;33.60;16.07;;;13.30;99.90;;;;;;4974537;28;20266;-72
2021/03/03 19:44:08;;;;;;;30.17;16.13;;;13.30;99.90;;;;;;4974307;28;20207;-73
2021/03/03 19:46:34;;;;;;;41.53;17.40;;;13.40;99.90;;;;;;4974695;28;20566;-73
2021/03/03 19:49:01;;;;;;;34.60;15.03;;;13.30;99.90;;;;;;4974499;28;20254;-72
2021/03/03 19:51:30;;;;;;;32.07;16.47;;;13.30;99.90;;;;;;4974697;28;20207;-73
2021/03/03 19:53:58;;;;;;;31.43;16.53;;;13.30;99.90;;;;;;4974278;28;20221;-73
2021/03/03 19:56:25;;;;;;;31.57;16.27;;;13.30;99.90;;;;;;4975211;28;20218;-73
2021/03/03 19:58:51;;;;;;;37.87;17.37;;;13.30;99.90;;;;;;4973978;28;20227;-73
2021/03/03 20:01:17;;;;;;;36.83;17.57;;;13.10;99.90;;;;;;4974493;28;20215;-73
2021/03/03 20:03:44;;;;;;;36.83;16.37;;;13.00;99.90;;;;;;4974644;28;20211;-73
2021/03/03 20:06:10;;;;;;;35.27;16.87;;;12.90;99.90;;;;;;4974228;28;20250;-73
2021/03/03 20:08:37;;;;;;;34.47;16.63;;;12.80;99.90;;;;;;4973967;28;20673;-73
2021/03/03 20:11:05;;;;;;;34.13;17.80;;;12.70;99.90;;;;;;4974134;28;20239;-73
2021/03/03 20:13:31;;;;;;;33.87;17.23;;;12.70;99.90;;;;;;4974527;28;20203;-73
2021/03/03 20:15:57;;;;;;;35.47;17.50;;;12.50;99.90;;;;;;4974278;28;20219;-73
2021/03/03 20:18:24;;;;;;;37.23;16.10;;;12.50;99.90;;;;;;4974075;28;20207;-73
2021/03/03 20:20:50;;;;;;;32.50;16.47;;;12.50;99.90;;;;;;4974157;28;20218;-73
2021/03/03 20:23:17;;;;;;;34.50;17.03;;;12.50;99.90;;;;;;4973825;28;20261;-73
2021/03/03 20:25:43;;;;;;;34.53;16.73;;;12.50;99.90;;;;;;4973720;28;20614;-73
2021/03/03 20:28:11;;;;;;;39.27;17.63;;;12.50;99.90;;;;;;4973942;28;20211;-73
2021/03/03 20:30:38;;;;;;;32.27;16.93;;;12.40;99.90;;;;;;4973933;28;20250;-73